sensor_id;sensor_type;location;lat;lon;timestamp;pressure;altitude;pressure_sealevel;temperature;humidity
70943;BME280;59154;51.970;5.650;2022-07-21T00:00:05;101800;;;21.75117;79.8
70943;BME280;59154;51.970;5.650;2022-07-21T00:05:03;101800;;;21.79186;80.4
70943;BME280;59154;51.970;5.650;2022-07-21T00:10:04;101800;;;21.78169;80.0
70943;BME280;59154;51.970;5.650;2022-07-21T00:15:04;101800;;;21.77152;80.0
70943;BME280;59154;51.970;5.650;2022-07-21T00:20:05;101800;;;21.71048;80.5
70943;BME280;59154;51.970;5.650;2022-07-21T00:25:03;101800;;;21.68505;81.0
70943;BME280;59154;51.970;5.650;2022-07-21T00:30:05;101800;;;21.56807;80.4
70943;BME280;59154;51.970;5.650;2022-07-21T00:35:03;101800;;;21.57315;80.8
70943;BME280;59154;51.970;5.650;2022-07-21T00:40:05;101800;;;21.50195;80.8
70943;BME280;59154;51.970;5.650;2022-07-21T00:45:04;101800;;;21.47143;80.8
70943;BME280;59154;51.970;5.650;2022-07-21T00:50:07;101800;;;21.45108;80.3
70943;BME280;59154;51.970;5.650;2022-07-21T00:55:03;101800;;;21.41548;79.8
70943;BME280;59154;51.970;5.650;2022-07-21T01:00:05;101800;;;21.35953;80.4
70943;BME280;59154;51.970;5.650;2022-07-21T01:05:04;101800;;;21.31884;79.8
70943;BME280;59154;51.970;5.650;2022-07-21T01:10:03;101800;;;21.27307;79.9
70943;BME280;59154;51.970;5.650;2022-07-21T01:15:03;101800;;;21.21712;81.2
70943;BME280;59154;51.970;5.650;2022-07-21T01:20:06;101700;;;21.23746;80.3
70943;BME280;59154;51.970;5.650;2022-07-21T01:25:03;101700;;;21.21203;79.8
70943;BME280;59154;51.970;5.650;2022-07-21T01:30:04;101700;;;21.14082;80.8
70943;BME280;59154;51.970;5.650;2022-07-21T01:35:04;101700;;;21.10522;80.7
70943;BME280;59154;51.970;5.650;2022-07-21T01:40:04;101800;;;21.02893;81.2
70943;BME280;59154;51.970;5.650;2022-07-21T01:45:04;101800;;;20.93738;81.0
70943;BME280;59154;51.970;5.650;2022-07-21T01:50:03;101800;;;20.87126;81.5
70943;BME280;59154;51.970;5.650;2022-07-21T01:55:03;101800;;;20.88651;81.8
70943;BME280;59154;51.970;5.650;2022-07-21T02:00:05;101800;;;20.86108;81.5
70943;BME280;59154;51.970;5.650;2022-07-21T02:05:03;101800;;;20.84074;81.6
70943;BME280;59154;51.970;5.650;2022-07-21T02:10:03;101800;;;20.80005;81.9
70943;BME280;59154;51.970;5.650;2022-07-21T02:15:03;101700;;;20.75936;81.8
70943;BME280;59154;51.970;5.650;2022-07-21T02:20:04;101700;;;20.79496;82.0
70943;BME280;59154;51.970;5.650;2022-07-21T02:25:02;101700;;;20.67798;82.2
70943;BME280;59154;51.970;5.650;2022-07-21T02:30:03;101700;;;20.62712;82.3
70943;BME280;59154;51.970;5.650;2022-07-21T02:35:04;101700;;;20.61695;82.6
70943;BME280;59154;51.970;5.650;2022-07-21T02:40:04;101700;;;20.55083;82.4
70943;BME280;59154;51.970;5.650;2022-07-21T02:45:03;101700;;;20.43893;83.2
70943;BME280;59154;51.970;5.650;2022-07-21T02:50:03;101700;;;20.35247;83.2
70943;BME280;59154;51.970;5.650;2022-07-21T02:55:02;101700;;;20.34229;83.7
70943;BME280;59154;51.970;5.650;2022-07-21T03:00:05;101700;;;20.37281;83.2
70943;BME280;59154;51.970;5.650;2022-07-21T03:05:04;101700;;;20.32195;84.0
70943;BME280;59154;51.970;5.650;2022-07-21T03:10:03;101700;;;20.21005;84.4
70943;BME280;59154;51.970;5.650;2022-07-21T03:15:03;101700;;;20.32195;84.3
70943;BME280;59154;51.970;5.650;2022-07-21T03:20:04;101700;;;20.31686;84.8
70943;BME280;59154;51.970;5.650;2022-07-21T03:25:03;101700;;;20.15919;85.9
70943;BME280;59154;51.970;5.650;2022-07-21T03:30:06;101700;;;20.24057;85.5
70943;BME280;59154;51.970;5.650;2022-07-21T03:35:04;101700;;;20.25074;85.0
70943;BME280;59154;51.970;5.650;2022-07-21T03:40:03;101700;;;20.266;85.4
70943;BME280;59154;51.970;5.650;2022-07-21T03:45:02;101700;;;20.1948;85.7
70943;BME280;59154;51.970;5.650;2022-07-21T03:50:04;101700;;;20.1185;86.2
70943;BME280;59154;51.970;5.650;2022-07-21T03:55:03;101700;;;20.13885;86.0
70943;BME280;59154;51.970;5.650;2022-07-21T04:00:06;101700;;;20.14393;85.7
70943;BME280;59154;51.970;5.650;2022-07-21T04:05:03;101700;;;20.10325;85.7
70943;BME280;59154;51.970;5.650;2022-07-21T04:10:03;101700;;;20.11342;85.6
70943;BME280;59154;51.970;5.650;2022-07-21T04:15:02;101700;;;20.0829;85.6
70943;BME280;59154;51.970;5.650;2022-07-21T04:20:04;101700;;;20.0829;85.7
70943;BME280;59154;51.970;5.650;2022-07-21T04:25:03;101700;;;20.0473;85.6
70943;BME280;59154;51.970;5.650;2022-07-21T04:30:05;101700;;;20.0473;85.5
70943;BME280;59154;51.970;5.650;2022-07-21T04:35:02;101700;;;20.05238;85.7
70943;BME280;59154;51.970;5.650;2022-07-21T04:40:06;101700;;;19.97609;86.2
70943;BME280;59154;51.970;5.650;2022-07-21T04:45:04;101700;;;20.07273;85.7
70943;BME280;59154;51.970;5.650;2022-07-21T04:50:04;101700;;;20.0829;85.9
70943;BME280;59154;51.970;5.650;2022-07-21T04:55:03;101700;;;20.14393;85.7
70943;BME280;59154;51.970;5.650;2022-07-21T05:00:04;101700;;;20.07781;86.7
70943;BME280;59154;51.970;5.650;2022-07-21T05:05:03;101700;;;20.06256;86.1
70943;BME280;59154;51.970;5.650;2022-07-21T05:10:04;101700;;;19.94049;86.6
70943;BME280;59154;51.970;5.650;2022-07-21T05:15:02;101700;;;19.95575;86.8
70943;BME280;59154;51.970;5.650;2022-07-21T05:20:04;101700;;;19.97609;86.6
70943;BME280;59154;51.970;5.650;2022-07-21T05:25:03;101700;;;19.8998;86.7
70943;BME280;59154;51.970;5.650;2022-07-21T05:30:04;101700;;;19.99644;86.6
70943;BME280;59154;51.970;5.650;2022-07-21T05:35:03;101700;;;19.99644;86.6
70943;BME280;59154;51.970;5.650;2022-07-21T05:40:03;101700;;;20.03204;86.6
70943;BME280;59154;51.970;5.650;2022-07-21T05:45:04;101700;;;20.10833;86.0
70943;BME280;59154;51.970;5.650;2022-07-21T05:50:03;101700;;;20.13376;85.2
70943;BME280;59154;51.970;5.650;2022-07-21T05:55:03;101700;;;20.2304;84.9
70943;BME280;59154;51.970;5.650;2022-07-21T06:00:05;101700;;;20.27109;84.4
70943;BME280;59154;51.970;5.650;2022-07-21T06:05:02;101700;;;20.28126;82.0
70943;BME280;59154;51.970;5.650;2022-07-21T06:10:03;101700;;;20.32195;82.2
70943;BME280;59154;51.970;5.650;2022-07-21T06:15:02;101700;;;20.49488;81.8
70943;BME280;59154;51.970;5.650;2022-07-21T06:20:04;101700;;;20.57117;82.3
70943;BME280;59154;51.970;5.650;2022-07-21T06:25:02;101700;;;20.5254;81.7
70943;BME280;59154;51.970;5.650;2022-07-21T06:30:05;101700;;;20.65764;81.2
70943;BME280;59154;51.970;5.650;2022-07-21T06:35:03;101700;;;20.62712;80.8
70943;BME280;59154;51.970;5.650;2022-07-21T06:40:05;101700;;;20.72884;80.8
70943;BME280;59154;51.970;5.650;2022-07-21T06:45:02;101700;;;20.87634;80.3
70943;BME280;59154;51.970;5.650;2022-07-21T06:50:04;101700;;;20.86108;80.0
70943;BME280;59154;51.970;5.650;2022-07-21T06:55:03;101700;;;20.98315;80.0
70943;BME280;59154;51.970;5.650;2022-07-21T07:00:05;101700;;;21.03401;79.7
70943;BME280;59154;51.970;5.650;2022-07-21T07:05:04;101700;;;21.10013;79.7
70943;BME280;59154;51.970;5.650;2022-07-21T07:10:03;101700;;;21.04419;79.6
70943;BME280;59154;51.970;5.650;2022-07-21T07:15:03;101700;;;21.16626;79.7
70943;BME280;59154;51.970;5.650;2022-07-21T07:20:03;101700;;;21.16117;79.6
70943;BME280;59154;51.970;5.650;2022-07-21T07:25:03;101700;;;21.151;79.8
70943;BME280;59154;51.970;5.650;2022-07-21T07:30:04;101700;;;21.07979;80.3
70943;BME280;59154;51.970;5.650;2022-07-21T07:35:02;101800;;;21.09505;79.9
70943;BME280;59154;51.970;5.650;2022-07-21T07:40:04;101700;;;21.0035;80.3
70943;BME280;59154;51.970;5.650;2022-07-21T07:45:06;101700;;;21.06453;80.6
70943;BME280;59154;51.970;5.650;2022-07-21T07:50:05;101800;;;20.95263;80.6
70943;BME280;59154;51.970;5.650;2022-07-21T07:55:04;101800;;;20.85091;80.7
70943;BME280;59154;51.970;5.650;2022-07-21T08:00:04;101800;;;20.71358;81.7
70943;BME280;59154;51.970;5.650;2022-07-21T08:05:03;101800;;;20.81531;81.2
70943;BME280;59154;51.970;5.650;2022-07-21T08:10:03;101800;;;20.90177;80.9
70943;BME280;59154;51.970;5.650;2022-07-21T08:15:03;101700;;;20.86108;81.1
70943;BME280;59154;51.970;5.650;2022-07-21T08:20:04;101700;;;20.88651;80.9
70943;BME280;59154;51.970;5.650;2022-07-21T08:25:03;101700;;;20.81022;81.2
70943;BME280;59154;51.970;5.650;2022-07-21T08:30:03;101700;;;20.77462;82.1
70943;BME280;59154;51.970;5.650;2022-07-21T08:35:03;101700;;;20.57626;83.8
70943;BME280;59154;51.970;5.650;2022-07-21T08:40:04;101700;;;20.64746;85.1
70943;BME280;59154;51.970;5.650;2022-07-21T08:45:03;101700;;;20.25074;87.5
70943;BME280;59154;51.970;5.650;2022-07-21T08:50:03;101700;;;20.15919;88.9
70943;BME280;59154;51.970;5.650;2022-07-21T08:55:03;101700;;;20.06256;88.6
70943;BME280;59154;51.970;5.650;2022-07-21T09:00:05;101700;;;20.00661;89.0
70943;BME280;59154;51.970;5.650;2022-07-21T09:05:04;101800;;;19.83368;90.2
70943;BME280;59154;51.970;5.650;2022-07-21T09:10:04;101800;;;19.66075;89.9
70943;BME280;59154;51.970;5.650;2022-07-21T09:15:12;101700;;;19.67601;90.3
70943;BME280;59154;51.970;5.650;2022-07-21T09:20:04;101800;;;19.62006;90.6
70943;BME280;59154;51.970;5.650;2022-07-21T09:25:03;101700;;;19.67092;90.9
70943;BME280;59154;51.970;5.650;2022-07-21T09:30:03;101800;;;19.70653;91.2
70943;BME280;59154;51.970;5.650;2022-07-21T09:35:05;101700;;;19.72179;90.7
70943;BME280;59154;51.970;5.650;2022-07-21T09:40:05;101800;;;19.84385;90.2
70943;BME280;59154;51.970;5.650;2022-07-21T09:45:04;101800;;;19.90489;89.9
70943;BME280;59154;51.970;5.650;2022-07-21T09:50:04;101800;;;19.9354;90.5
70943;BME280;59154;51.970;5.650;2022-07-21T09:55:04;101800;;;20.01678;90.6
70943;BME280;59154;51.970;5.650;2022-07-21T10:00:06;101800;;;20.05747;90.2
70943;BME280;59154;51.970;5.650;2022-07-21T10:05:04;101800;;;20.15411;90.4
70943;BME280;59154;51.970;5.650;2022-07-21T10:10:04;101800;;;20.0829;90.8
70943;BME280;59154;51.970;5.650;2022-07-21T10:15:03;101800;;;20.07781;90.9
70943;BME280;59154;51.970;5.650;2022-07-21T10:20:07;101800;;;19.97609;91.4
70943;BME280;59154;51.970;5.650;2022-07-21T10:25:03;101800;;;19.82859;90.7
70943;BME280;59154;51.970;5.650;2022-07-21T10:30:04;101800;;;19.82351;89.3
70943;BME280;59154;51.970;5.650;2022-07-21T10:35:26;101800;;;19.94557;89.2
70943;BME280;59154;51.970;5.650;2022-07-21T10:40:04;101800;;;19.99644;88.5
70943;BME280;59154;51.970;5.650;2022-07-21T10:45:20;101800;;;20.24057;87.3
70943;BME280;59154;51.970;5.650;2022-07-21T10:50:03;101800;;;20.18971;87.8
70943;BME280;59154;51.970;5.650;2022-07-21T10:55:20;101800;;;20.29143;88.2
70943;BME280;59154;51.970;5.650;2022-07-21T11:00:22;101800;;;20.17445;88.3
70943;BME280;59154;51.970;5.650;2022-07-21T11:05:05;101800;;;19.86928;88.0
70943;BME280;59154;51.970;5.650;2022-07-21T11:10:14;101800;;;19.94557;87.9
70943;BME280;59154;51.970;5.650;2022-07-21T11:15:03;101800;;;20.12359;88.5
70943;BME280;59154;51.970;5.650;2022-07-21T11:20:12;101800;;;19.83368;87.7
70943;BME280;59154;51.970;5.650;2022-07-21T11:25:05;101800;;;19.85911;89.2
70943;BME280;59154;51.970;5.650;2022-07-21T11:30:05;101800;;;19.84385;89.4
70943;BME280;59154;51.970;5.650;2022-07-21T11:35:04;101800;;;20.01169;89.3
70943;BME280;59154;51.970;5.650;2022-07-21T11:40:05;101800;;;19.98118;86.8
70943;BME280;59154;51.970;5.650;2022-07-21T11:45:05;101800;;;19.97101;87.1
70943;BME280;59154;51.970;5.650;2022-07-21T11:50:05;101800;;;19.99644;86.3
70943;BME280;59154;51.970;5.650;2022-07-21T11:55:05;101800;;;19.93032;86.7
70943;BME280;59154;51.970;5.650;2022-07-21T12:00:04;101800;;;20.29652;85.7
70943;BME280;59154;51.970;5.650;2022-07-21T12:05:03;101800;;;20.53048;84.8
70943;BME280;59154;51.970;5.650;2022-07-21T12:10:05;101800;;;20.54065;85.5
70943;BME280;59154;51.970;5.650;2022-07-21T12:15:13;101800;;;20.55083;85.7
70943;BME280;59154;51.970;5.650;2022-07-21T12:20:04;101800;;;20.39824;84.8
70943;BME280;59154;51.970;5.650;2022-07-21T12:25:04;101800;;;20.24057;85.6
70943;BME280;59154;51.970;5.650;2022-07-21T12:30:05;101800;;;20.30669;86.0
70943;BME280;59154;51.970;5.650;2022-07-21T12:35:03;101800;;;20.34229;87.0
70943;BME280;59154;51.970;5.650;2022-07-21T12:40:05;101800;;;20.27109;85.9
70943;BME280;59154;51.970;5.650;2022-07-21T12:45:13;101800;;;20.16937;86.6
70943;BME280;59154;51.970;5.650;2022-07-21T12:50:05;101800;;;20.11342;87.2
70943;BME280;59154;51.970;5.650;2022-07-21T12:55:04;101800;;;20.06764;86.7
70943;BME280;59154;51.970;5.650;2022-07-21T13:00:05;101800;;;20.10833;86.9
70943;BME280;59154;51.970;5.650;2022-07-21T13:05:03;101800;;;20.43384;86.8
70943;BME280;59154;51.970;5.650;2022-07-21T13:10:03;101800;;;20.49997;85.9
70943;BME280;59154;51.970;5.650;2022-07-21T13:15:04;101800;;;20.39316;86.2
70943;BME280;59154;51.970;5.650;2022-07-21T13:20:04;101800;;;20.44402;86.5
70943;BME280;59154;51.970;5.650;2022-07-21T13:25:03;101800;;;20.18971;86.6
70943;BME280;59154;51.970;5.650;2022-07-21T13:30:04;101800;;;20.19988;86.5
70943;BME280;59154;51.970;5.650;2022-07-21T13:35:03;101800;;;20.1948;87.5
70943;BME280;59154;51.970;5.650;2022-07-21T13:40:05;101800;;;20.22023;87.3
70943;BME280;59154;51.970;5.650;2022-07-21T13:45:03;101900;;;20.37281;86.0
70943;BME280;59154;51.970;5.650;2022-07-21T13:50:04;101800;;;20.44402;86.4
70943;BME280;59154;51.970;5.650;2022-07-21T13:55:03;101800;;;20.49488;86.1
70943;BME280;59154;51.970;5.650;2022-07-21T14:00:04;101800;;;20.47453;86.9
70943;BME280;59154;51.970;5.650;2022-07-21T14:05:03;101800;;;20.06764;86.7
70943;BME280;59154;51.970;5.650;2022-07-21T14:10:03;101800;;;20.06764;87.2
70943;BME280;59154;51.970;5.650;2022-07-21T14:15:02;101900;;;20.42367;86.5
70943;BME280;59154;51.970;5.650;2022-07-21T14:20:04;101800;;;20.72884;85.3
70943;BME280;59154;51.970;5.650;2022-07-21T14:25:03;101800;;;20.65255;86.6
70943;BME280;59154;51.970;5.650;2022-07-21T14:30:04;101800;;;20.42876;87.1
70943;BME280;59154;51.970;5.650;2022-07-21T14:35:03;101800;;;20.42876;86.9
70943;BME280;59154;51.970;5.650;2022-07-21T14:40:05;101800;;;20.35755;87.0
70943;BME280;59154;51.970;5.650;2022-07-21T14:45:03;101900;;;20.49488;86.9
70943;BME280;59154;51.970;5.650;2022-07-21T14:50:04;101900;;;20.38298;87.6
70943;BME280;59154;51.970;5.650;2022-07-21T14:55:04;101900;;;20.25074;87.5
70943;BME280;59154;51.970;5.650;2022-07-21T15:00:05;101900;;;20.15411;87.8
70943;BME280;59154;51.970;5.650;2022-07-21T15:05:03;101900;;;20.2304;88.2
70943;BME280;59154;51.970;5.650;2022-07-21T15:10:03;101800;;;20.12359;88.4
70943;BME280;59154;51.970;5.650;2022-07-21T15:15:03;101800;;;20.01678;88.3
70943;BME280;59154;51.970;5.650;2022-07-21T15:20:05;101900;;;20.03204;89.6
70943;BME280;59154;51.970;5.650;2022-07-21T15:25:03;101900;;;19.88454;90.3
70943;BME280;59154;51.970;5.650;2022-07-21T15:30:03;101900;;;19.86928;90.1
70943;BME280;59154;51.970;5.650;2022-07-21T15:35:03;101900;;;19.91506;90.5
70943;BME280;59154;51.970;5.650;2022-07-21T15:40:05;101900;;;20.30669;89.2
70943;BME280;59154;51.970;5.650;2022-07-21T15:45:04;101900;;;20.15919;89.3
70943;BME280;59154;51.970;5.650;2022-07-21T15:50:03;101900;;;19.95066;89.5
70943;BME280;59154;51.970;5.650;2022-07-21T15:55:02;101900;;;19.90489;89.6
70943;BME280;59154;51.970;5.650;2022-07-21T16:00:05;101900;;;19.72179;90.1
70943;BME280;59154;51.970;5.650;2022-07-21T16:05:03;101900;;;19.48274;91.8
70943;BME280;59154;51.970;5.650;2022-07-21T16:10:02;101900;;;19.43188;91.7
70943;BME280;59154;51.970;5.650;2022-07-21T16:15:03;101900;;;19.3149;91.6
70943;BME280;59154;51.970;5.650;2022-07-21T16:20:04;101900;;;19.33015;91.8
70943;BME280;59154;51.970;5.650;2022-07-21T16:25:03;101900;;;19.29455;91.4
70943;BME280;59154;51.970;5.650;2022-07-21T16:30:03;101900;;;19.22335;91.4
70943;BME280;59154;51.970;5.650;2022-07-21T16:35:04;101900;;;18.9131;91.0
70943;BME280;59154;51.970;5.650;2022-07-21T16:40:04;101900;;;18.64353;91.9
70943;BME280;59154;51.970;5.650;2022-07-21T16:45:03;101900;;;18.48587;91.7
70943;BME280;59154;51.970;5.650;2022-07-21T16:50:04;101900;;;18.40449;92.2
70943;BME280;59154;51.970;5.650;2022-07-21T16:55:03;101900;;;18.40958;92.2
70943;BME280;59154;51.970;5.650;2022-07-21T17:00:05;102000;;;18.26717;92.5
70943;BME280;59154;51.970;5.650;2022-07-21T17:05:03;102000;;;18.04847;93.1
70943;BME280;59154;51.970;5.650;2022-07-21T17:10:04;102000;;;17.89589;93.4
70943;BME280;59154;51.970;5.650;2022-07-21T17:15:04;102000;;;18.06881;92.6
70943;BME280;59154;51.970;5.650;2022-07-21T17:20:05;102000;;;18.0739;92.4
70943;BME280;59154;51.970;5.650;2022-07-21T17:25:04;102000;;;18.16545;92.7
70943;BME280;59154;51.970;5.650;2022-07-21T17:30:04;102000;;;18.1095;92.4
70943;BME280;59154;51.970;5.650;2022-07-21T17:35:03;102000;;;17.81451;93.2
70943;BME280;59154;51.970;5.650;2022-07-21T17:40:03;102000;;;17.96201;92.7
70943;BME280;59154;51.970;5.650;2022-07-21T17:45:03;102000;;;17.79925;91.9
70943;BME280;59154;51.970;5.650;2022-07-21T17:50:04;102000;;;17.79925;91.9
70943;BME280;59154;51.970;5.650;2022-07-21T17:55:02;102000;;;17.71788;92.7
70943;BME280;59154;51.970;5.650;2022-07-21T18:00:04;102000;;;17.7077;92.8
70943;BME280;59154;51.970;5.650;2022-07-21T18:05:03;102000;;;17.67719;92.6
70943;BME280;59154;51.970;5.650;2022-07-21T18:10:04;102000;;;17.62633;93.0
70943;BME280;59154;51.970;5.650;2022-07-21T18:15:04;102000;;;17.58055;93.0
70943;BME280;59154;51.970;5.650;2022-07-21T18:20:04;102000;;;17.66193;93.0
70943;BME280;59154;51.970;5.650;2022-07-21T18:25:03;102000;;;17.6365;92.6
70943;BME280;59154;51.970;5.650;2022-07-21T18:30:03;102000;;;17.60598;92.8
70943;BME280;59154;51.970;5.650;2022-07-21T18:35:03;102100;;;17.47883;93.3
70943;BME280;59154;51.970;5.650;2022-07-21T18:40:05;102100;;;17.37203;93.9
70943;BME280;59154;51.970;5.650;2022-07-21T18:45:03;102100;;;17.32117;94.3
70943;BME280;59154;51.970;5.650;2022-07-21T18:50:04;102100;;;17.25505;94.2
70943;BME280;59154;51.970;5.650;2022-07-21T18:55:03;102100;;;17.22962;94.0
70943;BME280;59154;51.970;5.650;2022-07-21T19:00:05;102100;;;17.20928;93.8
70943;BME280;59154;51.970;5.650;2022-07-21T19:05:02;102100;;;17.13299;93.4
70943;BME280;59154;51.970;5.650;2022-07-21T19:10:04;102100;;;17.06687;92.7
70943;BME280;59154;51.970;5.650;2022-07-21T19:15:03;102100;;;16.99058;93.0
70943;BME280;59154;51.970;5.650;2022-07-21T19:20:04;102100;;;17.0211;92.6
70943;BME280;59154;51.970;5.650;2022-07-21T19:25:02;102100;;;17.02618;91.8
70943;BME280;59154;51.970;5.650;2022-07-21T19:30:04;102100;;;17.0923;91.6
70943;BME280;59154;51.970;5.650;2022-07-21T19:35:03;102100;;;17.00584;91.4
70943;BME280;59154;51.970;5.650;2022-07-21T19:40:04;102100;;;17.05161;91.3
70943;BME280;59154;51.970;5.650;2022-07-21T19:45:03;102100;;;17.00584;90.4
70943;BME280;59154;51.970;5.650;2022-07-21T19:50:03;102100;;;17.04653;90.4
70943;BME280;59154;51.970;5.650;2022-07-21T19:55:03;102100;;;16.88378;91.0
70943;BME280;59154;51.970;5.650;2022-07-21T20:00:05;102100;;;16.95498;90.6
70943;BME280;59154;51.970;5.650;2022-07-21T20:05:03;102100;;;16.93972;90.5
70943;BME280;59154;51.970;5.650;2022-07-21T20:10:03;102100;;;16.95498;90.5
70943;BME280;59154;51.970;5.650;2022-07-21T20:15:04;102100;;;17.02618;90.2
70943;BME280;59154;51.970;5.650;2022-07-21T20:20:04;102100;;;17.03127;90.2
70943;BME280;59154;51.970;5.650;2022-07-21T20:25:03;102100;;;17.00075;90.1
70943;BME280;59154;51.970;5.650;2022-07-21T20:30:03;102100;;;17.04653;89.8
70943;BME280;59154;51.970;5.650;2022-07-21T20:35:02;102100;;;17.01601;89.9
70943;BME280;59154;51.970;5.650;2022-07-21T20:40:03;102100;;;16.91429;90.2
70943;BME280;59154;51.970;5.650;2022-07-21T20:45:04;102200;;;16.93464;90.0
70943;BME280;59154;51.970;5.650;2022-07-21T20:50:04;102200;;;16.82783;90.0
70943;BME280;59154;51.970;5.650;2022-07-21T20:55:03;102200;;;16.8736;90.0
70943;BME280;59154;51.970;5.650;2022-07-21T21:00:05;102200;;;16.88378;89.9
70943;BME280;59154;51.970;5.650;2022-07-21T21:05:03;102200;;;16.70068;90.1
70943;BME280;59154;51.970;5.650;2022-07-21T21:10:04;102200;;;16.74645;90.1
70943;BME280;59154;51.970;5.650;2022-07-21T21:15:04;102200;;;16.75154;90.0
70943;BME280;59154;51.970;5.650;2022-07-21T21:20:05;102200;;;16.75154;90.0
70943;BME280;59154;51.970;5.650;2022-07-21T21:25:03;102200;;;16.63965;90.0
70943;BME280;59154;51.970;5.650;2022-07-21T21:30:04;102200;;;16.70068;90.0
70943;BME280;59154;51.970;5.650;2022-07-21T21:35:03;102200;;;16.70068;89.7
70943;BME280;59154;51.970;5.650;2022-07-21T21:40:05;102200;;;16.73628;89.8
70943;BME280;59154;51.970;5.650;2022-07-21T21:45:03;102200;;;16.59896;89.8
70943;BME280;59154;51.970;5.650;2022-07-21T21:50:03;102200;;;16.56845;89.9
70943;BME280;59154;51.970;5.650;2022-07-21T21:55:04;102200;;;16.65491;89.1
70943;BME280;59154;51.970;5.650;2022-07-21T22:00:06;102200;;;16.57862;89.3
70943;BME280;59154;51.970;5.650;2022-07-21T22:05:03;102200;;;16.56336;89.2
70943;BME280;59154;51.970;5.650;2022-07-21T22:10:03;102200;;;16.55827;89.4
70943;BME280;59154;51.970;5.650;2022-07-21T22:15:04;102200;;;16.56845;89.2
70943;BME280;59154;51.970;5.650;2022-07-21T22:20:05;102200;;;16.55319;89.3
70943;BME280;59154;51.970;5.650;2022-07-21T22:25:06;102200;;;16.55319;89.2
70943;BME280;59154;51.970;5.650;2022-07-21T22:30:05;102200;;;16.61931;89.4
70943;BME280;59154;51.970;5.650;2022-07-21T22:35:03;102200;;;16.60913;89.3
70943;BME280;59154;51.970;5.650;2022-07-21T22:40:04;102200;;;16.54302;89.3
70943;BME280;59154;51.970;5.650;2022-07-21T22:45:03;102200;;;16.68034;89.2
70943;BME280;59154;51.970;5.650;2022-07-21T22:50:03;102200;;;16.59388;89.1
70943;BME280;59154;51.970;5.650;2022-07-21T22:55:03;102200;;;16.57862;89.3
70943;BME280;59154;51.970;5.650;2022-07-21T23:00:04;102200;;;16.53285;88.9
70943;BME280;59154;51.970;5.650;2022-07-21T23:05:03;102200;;;16.46673;89.4
70943;BME280;59154;51.970;5.650;2022-07-21T23:10:04;102200;;;16.45656;89.3
70943;BME280;59154;51.970;5.650;2022-07-21T23:15:03;102200;;;16.5481;89.5
70943;BME280;59154;51.970;5.650;2022-07-21T23:20:04;102200;;;16.55827;89.1
70943;BME280;59154;51.970;5.650;2022-07-21T23:25:03;102200;;;16.55827;89.0
70943;BME280;59154;51.970;5.650;2022-07-21T23:30:04;102200;;;16.41078;89.3
70943;BME280;59154;51.970;5.650;2022-07-21T23:35:03;102200;;;16.32941;89.5
70943;BME280;59154;51.970;5.650;2022-07-21T23:40:04;102200;;;16.36501;89.4
70943;BME280;59154;51.970;5.650;2022-07-21T23:45:03;102200;;;16.3701;88.9
70943;BME280;59154;51.970;5.650;2022-07-21T23:50:04;102200;;;16.38535;88.9
70943;BME280;59154;51.970;5.650;2022-07-21T23:55:03;102200;;;16.35484;89.3
